sensor_id;sensor_type;location;lat;lon;timestamp;temperature;humidity
12180;DHT22;6153;51.490;6.586;2022-07-22T00:01:07;16.00;99.90
12180;DHT22;6153;51.490;6.586;2022-07-22T00:04:08;16.00;99.90
12180;DHT22;6153;51.490;6.586;2022-07-22T00:07:09;16.00;99.90
12180;DHT22;6153;51.490;6.586;2022-07-22T00:10:10;16.00;99.90
12180;DHT22;6153;51.490;6.586;2022-07-22T00:13:11;15.90;99.90
12180;DHT22;6153;51.490;6.586;2022-07-22T00:16:11;15.90;99.90
12180;DHT22;6153;51.490;6.586;2022-07-22T00:19:12;15.90;99.90
12180;DHT22;6153;51.490;6.586;2022-07-22T00:22:13;15.90;99.90
12180;DHT22;6153;51.490;6.586;2022-07-22T00:25:13;15.90;99.90
12180;DHT22;6153;51.490;6.586;2022-07-22T00:28:14;15.90;99.90
12180;DHT22;6153;51.490;6.586;2022-07-22T00:31:14;15.90;99.90
12180;DHT22;6153;51.490;6.586;2022-07-22T00:34:15;16.00;99.90
12180;DHT22;6153;51.490;6.586;2022-07-22T00:37:15;15.90;99.90
12180;DHT22;6153;51.490;6.586;2022-07-22T00:40:16;15.90;99.90
12180;DHT22;6153;51.490;6.586;2022-07-22T00:43:17;16.00;99.90
12180;DHT22;6153;51.490;6.586;2022-07-22T00:46:17;15.90;99.90
12180;DHT22;6153;51.490;6.586;2022-07-22T00:49:18;15.90;99.90
12180;DHT22;6153;51.490;6.586;2022-07-22T00:52:19;15.90;99.90
12180;DHT22;6153;51.490;6.586;2022-07-22T00:55:19;15.90;99.90
12180;DHT22;6153;51.490;6.586;2022-07-22T00:58:20;15.90;99.90
12180;DHT22;6153;51.490;6.586;2022-07-22T01:01:22;15.90;99.90
12180;DHT22;6153;51.490;6.586;2022-07-22T01:04:22;15.90;99.90
12180;DHT22;6153;51.490;6.586;2022-07-22T01:07:23;16.00;99.90
12180;DHT22;6153;51.490;6.586;2022-07-22T01:10:23;16.00;99.90
12180;DHT22;6153;51.490;6.586;2022-07-22T01:13:25;16.00;99.90
12180;DHT22;6153;51.490;6.586;2022-07-22T01:16:25;16.00;99.90
12180;DHT22;6153;51.490;6.586;2022-07-22T01:19:26;16.00;99.90
12180;DHT22;6153;51.490;6.586;2022-07-22T01:22:26;15.90;99.90
12180;DHT22;6153;51.490;6.586;2022-07-22T01:25:27;15.90;99.90
12180;DHT22;6153;51.490;6.586;2022-07-22T01:28:28;15.80;99.90
12180;DHT22;6153;51.490;6.586;2022-07-22T01:31:28;15.80;99.90
12180;DHT22;6153;51.490;6.586;2022-07-22T01:34:29;15.80;99.90
12180;DHT22;6153;51.490;6.586;2022-07-22T01:37:31;15.80;99.90
12180;DHT22;6153;51.490;6.586;2022-07-22T01:40:32;15.80;99.90
12180;DHT22;6153;51.490;6.586;2022-07-22T01:43:32;15.80;99.90
12180;DHT22;6153;51.490;6.586;2022-07-22T01:46:33;15.80;99.90
12180;DHT22;6153;51.490;6.586;2022-07-22T01:49:33;15.80;99.90
12180;DHT22;6153;51.490;6.586;2022-07-22T01:52:35;15.80;99.90
12180;DHT22;6153;51.490;6.586;2022-07-22T01:55:36;15.80;99.90
12180;DHT22;6153;51.490;6.586;2022-07-22T01:58:37;15.80;99.90
12180;DHT22;6153;51.490;6.586;2022-07-22T02:01:37;15.80;99.90
12180;DHT22;6153;51.490;6.586;2022-07-22T02:04:38;15.90;99.90
12180;DHT22;6153;51.490;6.586;2022-07-22T02:07:38;15.80;99.90
12180;DHT22;6153;51.490;6.586;2022-07-22T02:10:39;15.80;99.90
12180;DHT22;6153;51.490;6.586;2022-07-22T02:13:39;15.80;99.90
12180;DHT22;6153;51.490;6.586;2022-07-22T02:16:40;15.70;99.90
12180;DHT22;6153;51.490;6.586;2022-07-22T02:19:40;15.80;99.90
12180;DHT22;6153;51.490;6.586;2022-07-22T02:22:41;15.80;99.90
12180;DHT22;6153;51.490;6.586;2022-07-22T02:25:42;15.70;99.90
12180;DHT22;6153;51.490;6.586;2022-07-22T02:28:42;15.80;99.90
12180;DHT22;6153;51.490;6.586;2022-07-22T02:31:43;15.90;99.90
12180;DHT22;6153;51.490;6.586;2022-07-22T02:34:43;15.90;99.90
12180;DHT22;6153;51.490;6.586;2022-07-22T02:37:44;15.90;99.90
12180;DHT22;6153;51.490;6.586;2022-07-22T02:40:44;15.80;99.90
12180;DHT22;6153;51.490;6.586;2022-07-22T02:43:45;15.80;99.90
12180;DHT22;6153;51.490;6.586;2022-07-22T02:46:45;15.80;99.90
12180;DHT22;6153;51.490;6.586;2022-07-22T02:49:46;15.80;99.90
12180;DHT22;6153;51.490;6.586;2022-07-22T02:52:46;15.80;99.90
12180;DHT22;6153;51.490;6.586;2022-07-22T02:55:47;15.90;99.90
12180;DHT22;6153;51.490;6.586;2022-07-22T02:58:48;15.90;99.90
12180;DHT22;6153;51.490;6.586;2022-07-22T03:01:52;15.90;99.90
12180;DHT22;6153;51.490;6.586;2022-07-22T03:04:52;15.90;99.90
12180;DHT22;6153;51.490;6.586;2022-07-22T03:07:53;15.80;99.90
12180;DHT22;6153;51.490;6.586;2022-07-22T03:10:53;15.80;99.90
12180;DHT22;6153;51.490;6.586;2022-07-22T03:13:54;15.80;99.90
12180;DHT22;6153;51.490;6.586;2022-07-22T03:16:54;15.90;99.90
12180;DHT22;6153;51.490;6.586;2022-07-22T03:19:55;16.00;99.90
12180;DHT22;6153;51.490;6.586;2022-07-22T03:22:55;16.00;99.90
12180;DHT22;6153;51.490;6.586;2022-07-22T03:25:56;16.00;99.90
12180;DHT22;6153;51.490;6.586;2022-07-22T03:28:57;15.90;99.90
12180;DHT22;6153;51.490;6.586;2022-07-22T03:31:57;15.90;99.90
12180;DHT22;6153;51.490;6.586;2022-07-22T03:34:58;15.90;99.90
12180;DHT22;6153;51.490;6.586;2022-07-22T03:37:58;15.90;99.90
12180;DHT22;6153;51.490;6.586;2022-07-22T03:40:59;15.90;99.90
12180;DHT22;6153;51.490;6.586;2022-07-22T03:44:00;15.90;99.90
12180;DHT22;6153;51.490;6.586;2022-07-22T03:47:00;15.90;99.90
12180;DHT22;6153;51.490;6.586;2022-07-22T03:50:01;15.90;99.90
12180;DHT22;6153;51.490;6.586;2022-07-22T03:53:02;15.80;99.90
12180;DHT22;6153;51.490;6.586;2022-07-22T03:56:03;15.80;99.90
12180;DHT22;6153;51.490;6.586;2022-07-22T03:59:03;15.80;99.90
12180;DHT22;6153;51.490;6.586;2022-07-22T04:02:04;15.80;99.90
12180;DHT22;6153;51.490;6.586;2022-07-22T04:05:04;15.70;99.90
12180;DHT22;6153;51.490;6.586;2022-07-22T04:08:05;15.70;99.90
12180;DHT22;6153;51.490;6.586;2022-07-22T04:11:06;15.70;99.90
12180;DHT22;6153;51.490;6.586;2022-07-22T04:14:06;15.80;99.90
12180;DHT22;6153;51.490;6.586;2022-07-22T04:17:07;15.70;99.90
12180;DHT22;6153;51.490;6.586;2022-07-22T04:20:07;15.80;99.90
12180;DHT22;6153;51.490;6.586;2022-07-22T04:23:08;15.90;99.90
12180;DHT22;6153;51.490;6.586;2022-07-22T04:26:09;16.00;99.90
12180;DHT22;6153;51.490;6.586;2022-07-22T04:29:09;16.10;99.90
12180;DHT22;6153;51.490;6.586;2022-07-22T04:32:10;16.10;99.90
12180;DHT22;6153;51.490;6.586;2022-07-22T04:35:10;16.10;99.90
12180;DHT22;6153;51.490;6.586;2022-07-22T04:38:11;16.10;99.90
12180;DHT22;6153;51.490;6.586;2022-07-22T04:41:11;16.10;99.90
12180;DHT22;6153;51.490;6.586;2022-07-22T04:44:12;16.10;99.90
12180;DHT22;6153;51.490;6.586;2022-07-22T04:47:12;16.30;99.90
12180;DHT22;6153;51.490;6.586;2022-07-22T04:50:13;16.30;99.90
12180;DHT22;6153;51.490;6.586;2022-07-22T04:53:13;16.20;99.90
12180;DHT22;6153;51.490;6.586;2022-07-22T04:56:14;16.20;99.90
12180;DHT22;6153;51.490;6.586;2022-07-22T04:59:14;16.20;99.90
12180;DHT22;6153;51.490;6.586;2022-07-22T05:02:15;16.30;99.90
12180;DHT22;6153;51.490;6.586;2022-07-22T05:05:15;16.40;99.90
12180;DHT22;6153;51.490;6.586;2022-07-22T05:08:16;16.40;99.90
12180;DHT22;6153;51.490;6.586;2022-07-22T05:11:16;16.50;99.90
12180;DHT22;6153;51.490;6.586;2022-07-22T05:14:17;16.60;99.90
12180;DHT22;6153;51.490;6.586;2022-07-22T05:17:18;16.50;99.90
12180;DHT22;6153;51.490;6.586;2022-07-22T05:20:18;16.60;99.90
12180;DHT22;6153;51.490;6.586;2022-07-22T05:23:19;16.60;99.90
12180;DHT22;6153;51.490;6.586;2022-07-22T05:26:19;16.80;99.90
12180;DHT22;6153;51.490;6.586;2022-07-22T05:29:20;16.90;99.90
12180;DHT22;6153;51.490;6.586;2022-07-22T05:32:21;16.70;99.90
12180;DHT22;6153;51.490;6.586;2022-07-22T05:35:21;16.70;99.90
12180;DHT22;6153;51.490;6.586;2022-07-22T05:38:22;16.70;99.90
12180;DHT22;6153;51.490;6.586;2022-07-22T05:41:22;16.90;99.90
12180;DHT22;6153;51.490;6.586;2022-07-22T05:44:23;16.90;99.90
12180;DHT22;6153;51.490;6.586;2022-07-22T05:47:23;16.80;99.90
12180;DHT22;6153;51.490;6.586;2022-07-22T05:50:24;16.90;99.90
12180;DHT22;6153;51.490;6.586;2022-07-22T05:53:25;16.90;99.90
12180;DHT22;6153;51.490;6.586;2022-07-22T05:56:25;17.00;99.90
12180;DHT22;6153;51.490;6.586;2022-07-22T05:59:26;17.20;99.90
12180;DHT22;6153;51.490;6.586;2022-07-22T06:02:26;17.10;99.90
12180;DHT22;6153;51.490;6.586;2022-07-22T06:05:27;17.20;99.90
12180;DHT22;6153;51.490;6.586;2022-07-22T06:08:28;17.20;99.90
12180;DHT22;6153;51.490;6.586;2022-07-22T06:11:28;17.30;99.90
12180;DHT22;6153;51.490;6.586;2022-07-22T06:14:29;17.50;99.90
12180;DHT22;6153;51.490;6.586;2022-07-22T06:17:29;17.50;99.90
12180;DHT22;6153;51.490;6.586;2022-07-22T06:20:30;17.40;99.90
12180;DHT22;6153;51.490;6.586;2022-07-22T06:23:31;17.50;99.90
12180;DHT22;6153;51.490;6.586;2022-07-22T06:26:31;17.60;99.90
12180;DHT22;6153;51.490;6.586;2022-07-22T06:29:32;17.50;99.90
12180;DHT22;6153;51.490;6.586;2022-07-22T06:32:32;17.40;99.90
12180;DHT22;6153;51.490;6.586;2022-07-22T06:35:33;17.40;99.90
12180;DHT22;6153;51.490;6.586;2022-07-22T06:38:33;17.50;99.90
12180;DHT22;6153;51.490;6.586;2022-07-22T06:41:34;17.60;99.90
12180;DHT22;6153;51.490;6.586;2022-07-22T06:44:34;17.60;99.90
12180;DHT22;6153;51.490;6.586;2022-07-22T06:47:35;17.60;99.90
12180;DHT22;6153;51.490;6.586;2022-07-22T06:50:36;17.60;99.90
12180;DHT22;6153;51.490;6.586;2022-07-22T06:53:36;17.50;99.90
12180;DHT22;6153;51.490;6.586;2022-07-22T06:56:37;17.50;99.90
12180;DHT22;6153;51.490;6.586;2022-07-22T06:59:37;17.50;99.90
12180;DHT22;6153;51.490;6.586;2022-07-22T07:02:38;17.50;99.90
12180;DHT22;6153;51.490;6.586;2022-07-22T07:05:38;17.60;99.90
12180;DHT22;6153;51.490;6.586;2022-07-22T07:08:40;17.60;99.90
12180;DHT22;6153;51.490;6.586;2022-07-22T07:11:40;17.70;99.90
12180;DHT22;6153;51.490;6.586;2022-07-22T07:14:41;17.90;99.90
12180;DHT22;6153;51.490;6.586;2022-07-22T07:17:41;18.10;99.90
12180;DHT22;6153;51.490;6.586;2022-07-22T07:20:42;18.20;99.90
12180;DHT22;6153;51.490;6.586;2022-07-22T07:23:43;18.10;99.90
12180;DHT22;6153;51.490;6.586;2022-07-22T07:26:43;17.90;99.90
12180;DHT22;6153;51.490;6.586;2022-07-22T07:29:44;17.70;99.90
12180;DHT22;6153;51.490;6.586;2022-07-22T07:32:46;17.80;99.90
12180;DHT22;6153;51.490;6.586;2022-07-22T07:35:46;17.90;99.90
12180;DHT22;6153;51.490;6.586;2022-07-22T07:38:47;17.90;99.90
12180;DHT22;6153;51.490;6.586;2022-07-22T07:41:47;18.00;99.90
12180;DHT22;6153;51.490;6.586;2022-07-22T07:44:48;18.00;99.90
12180;DHT22;6153;51.490;6.586;2022-07-22T07:47:48;17.80;99.90
12180;DHT22;6153;51.490;6.586;2022-07-22T07:50:49;17.90;99.90
12180;DHT22;6153;51.490;6.586;2022-07-22T07:53:50;17.90;99.90
12180;DHT22;6153;51.490;6.586;2022-07-22T07:56:50;18.00;99.90
12180;DHT22;6153;51.490;6.586;2022-07-22T07:59:52;17.90;99.90
12180;DHT22;6153;51.490;6.586;2022-07-22T08:02:52;18.10;99.90
12180;DHT22;6153;51.490;6.586;2022-07-22T08:05:53;18.20;99.90
12180;DHT22;6153;51.490;6.586;2022-07-22T08:08:53;18.30;99.90
12180;DHT22;6153;51.490;6.586;2022-07-22T08:11:54;18.30;99.90
12180;DHT22;6153;51.490;6.586;2022-07-22T08:14:55;18.40;99.90
12180;DHT22;6153;51.490;6.586;2022-07-22T08:17:55;18.10;99.90
12180;DHT22;6153;51.490;6.586;2022-07-22T08:20:56;18.10;99.90
12180;DHT22;6153;51.490;6.586;2022-07-22T08:23:56;18.40;99.90
12180;DHT22;6153;51.490;6.586;2022-07-22T08:26:57;18.30;99.90
12180;DHT22;6153;51.490;6.586;2022-07-22T08:29:57;18.50;99.90
12180;DHT22;6153;51.490;6.586;2022-07-22T08:32:58;18.60;99.90
12180;DHT22;6153;51.490;6.586;2022-07-22T08:35:59;18.60;99.90
12180;DHT22;6153;51.490;6.586;2022-07-22T08:38:59;18.70;99.90
12180;DHT22;6153;51.490;6.586;2022-07-22T08:42:00;18.90;99.90
12180;DHT22;6153;51.490;6.586;2022-07-22T08:45:00;18.90;99.90
12180;DHT22;6153;51.490;6.586;2022-07-22T08:48:01;19.00;99.90
12180;DHT22;6153;51.490;6.586;2022-07-22T08:51:03;19.40;99.90
12180;DHT22;6153;51.490;6.586;2022-07-22T08:54:04;19.00;99.90
12180;DHT22;6153;51.490;6.586;2022-07-22T08:57:04;19.00;99.90
12180;DHT22;6153;51.490;6.586;2022-07-22T09:00:09;19.20;99.90
12180;DHT22;6153;51.490;6.586;2022-07-22T09:03:18;19.00;99.90
12180;DHT22;6153;51.490;6.586;2022-07-22T09:06:22;19.10;99.90
12180;DHT22;6153;51.490;6.586;2022-07-22T09:09:31;19.10;99.90
12180;DHT22;6153;51.490;6.586;2022-07-22T09:12:32;19.10;99.90
12180;DHT22;6153;51.490;6.586;2022-07-22T09:15:36;19.20;99.90
12180;DHT22;6153;51.490;6.586;2022-07-22T09:18:47;19.00;99.90
12180;DHT22;6153;51.490;6.586;2022-07-22T09:21:47;19.40;99.90
12180;DHT22;6153;51.490;6.586;2022-07-22T09:24:49;19.80;99.90
12180;DHT22;6153;51.490;6.586;2022-07-22T09:27:50;20.00;99.90
12180;DHT22;6153;51.490;6.586;2022-07-22T09:30:52;19.80;99.90
12180;DHT22;6153;51.490;6.586;2022-07-22T09:33:53;19.70;99.90
12180;DHT22;6153;51.490;6.586;2022-07-22T09:36:55;19.60;99.90
12180;DHT22;6153;51.490;6.586;2022-07-22T09:40:03;19.50;99.90
12180;DHT22;6153;51.490;6.586;2022-07-22T09:43:12;19.50;99.90
12180;DHT22;6153;51.490;6.586;2022-07-22T09:46:13;20.10;99.90
12180;DHT22;6153;51.490;6.586;2022-07-22T09:49:29;20.10;99.90
12180;DHT22;6153;51.490;6.586;2022-07-22T09:52:30;20.30;99.90
12180;DHT22;6153;51.490;6.586;2022-07-22T09:55:30;20.40;99.90
12180;DHT22;6153;51.490;6.586;2022-07-22T09:58:33;20.60;99.90
12180;DHT22;6153;51.490;6.586;2022-07-22T10:01:34;21.00;99.90
12180;DHT22;6153;51.490;6.586;2022-07-22T10:04:37;21.50;99.90
12180;DHT22;6153;51.490;6.586;2022-07-22T10:07:42;21.50;99.90
12180;DHT22;6153;51.490;6.586;2022-07-22T10:10:42;21.90;99.90
12180;DHT22;6153;51.490;6.586;2022-07-22T10:13:43;22.50;99.90
12180;DHT22;6153;51.490;6.586;2022-07-22T10:16:44;22.70;99.90
12180;DHT22;6153;51.490;6.586;2022-07-22T10:19:44;23.20;99.90
12180;DHT22;6153;51.490;6.586;2022-07-22T10:22:49;23.20;99.90
12180;DHT22;6153;51.490;6.586;2022-07-22T10:25:56;23.20;99.90
12180;DHT22;6153;51.490;6.586;2022-07-22T10:29:15;23.50;99.90
12180;DHT22;6153;51.490;6.586;2022-07-22T10:35:22;23.60;99.90
12180;DHT22;6153;51.490;6.586;2022-07-22T10:38:23;23.60;99.90
12180;DHT22;6153;51.490;6.586;2022-07-22T10:41:32;24.00;99.90
12180;DHT22;6153;51.490;6.586;2022-07-22T10:44:46;23.30;99.90
12180;DHT22;6153;51.490;6.586;2022-07-22T10:47:56;22.40;99.90
12180;DHT22;6153;51.490;6.586;2022-07-22T10:51:08;22.20;99.90
12180;DHT22;6153;51.490;6.586;2022-07-22T10:54:08;22.10;99.90
12180;DHT22;6153;51.490;6.586;2022-07-22T10:57:09;22.30;99.90
12180;DHT22;6153;51.490;6.586;2022-07-22T11:00:09;23.10;99.90
12180;DHT22;6153;51.490;6.586;2022-07-22T11:03:10;23.10;99.90
12180;DHT22;6153;51.490;6.586;2022-07-22T11:09:18;23.70;99.90
12180;DHT22;6153;51.490;6.586;2022-07-22T11:12:19;24.20;99.90
12180;DHT22;6153;51.490;6.586;2022-07-22T11:15:24;24.60;99.90
12180;DHT22;6153;51.490;6.586;2022-07-22T11:18:25;24.90;99.90
12180;DHT22;6153;51.490;6.586;2022-07-22T11:21:26;25.60;99.90
12180;DHT22;6153;51.490;6.586;2022-07-22T11:24:27;25.40;99.90
12180;DHT22;6153;51.490;6.586;2022-07-22T11:27:28;25.10;99.90
12180;DHT22;6153;51.490;6.586;2022-07-22T11:30:29;25.90;99.90
12180;DHT22;6153;51.490;6.586;2022-07-22T11:33:29;25.70;99.90
12180;DHT22;6153;51.490;6.586;2022-07-22T11:36:31;25.60;99.90
12180;DHT22;6153;51.490;6.586;2022-07-22T11:39:32;26.30;99.90
12180;DHT22;6153;51.490;6.586;2022-07-22T11:42:32;26.10;99.90
12180;DHT22;6153;51.490;6.586;2022-07-22T11:45:33;24.30;99.90
12180;DHT22;6153;51.490;6.586;2022-07-22T11:48:33;24.00;99.90
12180;DHT22;6153;51.490;6.586;2022-07-22T11:51:35;24.00;99.90
12180;DHT22;6153;51.490;6.586;2022-07-22T11:54:36;23.10;99.90
12180;DHT22;6153;51.490;6.586;2022-07-22T11:57:45;22.70;99.90
12180;DHT22;6153;51.490;6.586;2022-07-22T12:00:46;22.50;99.90
12180;DHT22;6153;51.490;6.586;2022-07-22T12:03:47;22.30;99.90
12180;DHT22;6153;51.490;6.586;2022-07-22T12:06:49;22.60;99.90
12180;DHT22;6153;51.490;6.586;2022-07-22T12:09:50;22.80;99.90
12180;DHT22;6153;51.490;6.586;2022-07-22T12:12:50;23.60;99.90
12180;DHT22;6153;51.490;6.586;2022-07-22T12:15:51;23.30;99.90
12180;DHT22;6153;51.490;6.586;2022-07-22T12:18:59;23.30;99.90
12180;DHT22;6153;51.490;6.586;2022-07-22T12:22:01;23.30;99.90
12180;DHT22;6153;51.490;6.586;2022-07-22T12:25:02;22.90;99.90
12180;DHT22;6153;51.490;6.586;2022-07-22T12:28:02;23.40;99.90
12180;DHT22;6153;51.490;6.586;2022-07-22T12:31:03;23.50;99.90
12180;DHT22;6153;51.490;6.586;2022-07-22T12:34:03;23.20;99.90
12180;DHT22;6153;51.490;6.586;2022-07-22T12:40:18;23.10;99.90
12180;DHT22;6153;51.490;6.586;2022-07-22T12:43:23;22.90;99.90
12180;DHT22;6153;51.490;6.586;2022-07-22T12:46:23;22.60;99.90
12180;DHT22;6153;51.490;6.586;2022-07-22T12:49:24;22.60;99.90
12180;DHT22;6153;51.490;6.586;2022-07-22T12:52:25;22.90;99.90
12180;DHT22;6153;51.490;6.586;2022-07-22T12:55:26;23.10;99.90
12180;DHT22;6153;51.490;6.586;2022-07-22T12:58:28;23.70;99.90
12180;DHT22;6153;51.490;6.586;2022-07-22T13:01:29;24.70;99.90
12180;DHT22;6153;51.490;6.586;2022-07-22T13:04:29;25.30;99.90
12180;DHT22;6153;51.490;6.586;2022-07-22T13:07:30;25.00;99.90
12180;DHT22;6153;51.490;6.586;2022-07-22T13:10:30;24.30;99.90
12180;DHT22;6153;51.490;6.586;2022-07-22T13:13:31;25.00;99.90
12180;DHT22;6153;51.490;6.586;2022-07-22T13:16:32;24.70;99.90
12180;DHT22;6153;51.490;6.586;2022-07-22T13:19:33;24.60;99.90
12180;DHT22;6153;51.490;6.586;2022-07-22T13:22:33;24.40;99.90
12180;DHT22;6153;51.490;6.586;2022-07-22T13:25:34;24.10;99.90
12180;DHT22;6153;51.490;6.586;2022-07-22T13:28:35;24.00;99.90
12180;DHT22;6153;51.490;6.586;2022-07-22T13:31:35;24.00;99.90
12180;DHT22;6153;51.490;6.586;2022-07-22T13:34:36;24.20;99.90
12180;DHT22;6153;51.490;6.586;2022-07-22T13:37:36;24.70;99.90
12180;DHT22;6153;51.490;6.586;2022-07-22T13:40:37;24.80;99.90
12180;DHT22;6153;51.490;6.586;2022-07-22T13:43:37;25.00;99.90
12180;DHT22;6153;51.490;6.586;2022-07-22T13:46:38;25.50;99.90
12180;DHT22;6153;51.490;6.586;2022-07-22T13:49:38;25.30;99.90
12180;DHT22;6153;51.490;6.586;2022-07-22T13:52:39;24.70;99.90
12180;DHT22;6153;51.490;6.586;2022-07-22T13:55:40;24.50;99.90
12180;DHT22;6153;51.490;6.586;2022-07-22T13:58:40;23.50;99.90
12180;DHT22;6153;51.490;6.586;2022-07-22T14:01:41;23.90;99.90
12180;DHT22;6153;51.490;6.586;2022-07-22T14:04:42;23.80;99.90
12180;DHT22;6153;51.490;6.586;2022-07-22T14:07:42;23.80;99.90
12180;DHT22;6153;51.490;6.586;2022-07-22T14:10:43;24.00;99.90
12180;DHT22;6153;51.490;6.586;2022-07-22T14:13:44;24.20;99.90
12180;DHT22;6153;51.490;6.586;2022-07-22T14:16:44;24.20;99.90
12180;DHT22;6153;51.490;6.586;2022-07-22T14:19:45;23.90;99.90
12180;DHT22;6153;51.490;6.586;2022-07-22T14:22:45;24.30;99.90
12180;DHT22;6153;51.490;6.586;2022-07-22T14:25:46;24.10;99.90
12180;DHT22;6153;51.490;6.586;2022-07-22T14:28:46;24.20;99.90
12180;DHT22;6153;51.490;6.586;2022-07-22T14:31:47;24.20;99.90
12180;DHT22;6153;51.490;6.586;2022-07-22T14:34:48;24.20;99.90
12180;DHT22;6153;51.490;6.586;2022-07-22T14:37:48;25.20;99.90
12180;DHT22;6153;51.490;6.586;2022-07-22T14:40:49;25.30;99.90
12180;DHT22;6153;51.490;6.586;2022-07-22T14:43:49;25.80;99.90
12180;DHT22;6153;51.490;6.586;2022-07-22T14:46:50;26.00;99.90
12180;DHT22;6153;51.490;6.586;2022-07-22T14:49:50;26.20;99.90
12180;DHT22;6153;51.490;6.586;2022-07-22T14:52:51;26.10;99.90
12180;DHT22;6153;51.490;6.586;2022-07-22T14:55:51;25.60;99.90
12180;DHT22;6153;51.490;6.586;2022-07-22T14:58:52;25.20;99.90
12180;DHT22;6153;51.490;6.586;2022-07-22T15:01:52;25.00;99.90
12180;DHT22;6153;51.490;6.586;2022-07-22T15:04:53;24.50;99.90
12180;DHT22;6153;51.490;6.586;2022-07-22T15:07:53;24.50;99.90
12180;DHT22;6153;51.490;6.586;2022-07-22T15:10:54;25.10;99.90
12180;DHT22;6153;51.490;6.586;2022-07-22T15:13:54;25.20;99.90
12180;DHT22;6153;51.490;6.586;2022-07-22T15:16:55;24.60;99.90
12180;DHT22;6153;51.490;6.586;2022-07-22T15:19:55;24.90;99.90
12180;DHT22;6153;51.490;6.586;2022-07-22T15:22:56;24.50;99.90
12180;DHT22;6153;51.490;6.586;2022-07-22T15:25:57;24.60;99.90
12180;DHT22;6153;51.490;6.586;2022-07-22T15:28:58;25.40;99.90
12180;DHT22;6153;51.490;6.586;2022-07-22T15:31:58;26.10;99.90
12180;DHT22;6153;51.490;6.586;2022-07-22T15:34:59;25.40;99.90
12180;DHT22;6153;51.490;6.586;2022-07-22T15:38:00;25.30;99.90
12180;DHT22;6153;51.490;6.586;2022-07-22T15:41:00;25.30;99.90
12180;DHT22;6153;51.490;6.586;2022-07-22T15:44:04;24.80;99.90
12180;DHT22;6153;51.490;6.586;2022-07-22T15:47:05;24.80;99.90
12180;DHT22;6153;51.490;6.586;2022-07-22T15:50:06;24.70;99.90
12180;DHT22;6153;51.490;6.586;2022-07-22T15:53:06;24.70;99.90
12180;DHT22;6153;51.490;6.586;2022-07-22T15:56:07;25.00;99.90
12180;DHT22;6153;51.490;6.586;2022-07-22T15:59:07;24.90;99.90
12180;DHT22;6153;51.490;6.586;2022-07-22T16:02:26;25.10;99.90
12180;DHT22;6153;51.490;6.586;2022-07-22T16:05:27;26.00;99.90
12180;DHT22;6153;51.490;6.586;2022-07-22T16:08:27;26.20;99.90
12180;DHT22;6153;51.490;6.586;2022-07-22T16:11:28;25.50;99.90
12180;DHT22;6153;51.490;6.586;2022-07-22T16:14:29;24.80;99.90
12180;DHT22;6153;51.490;6.586;2022-07-22T16:17:29;24.80;99.90
12180;DHT22;6153;51.490;6.586;2022-07-22T16:20:30;25.10;99.90
12180;DHT22;6153;51.490;6.586;2022-07-22T16:23:30;24.70;99.90
12180;DHT22;6153;51.490;6.586;2022-07-22T16:26:31;24.60;99.90
12180;DHT22;6153;51.490;6.586;2022-07-22T16:29:31;24.30;99.90
12180;DHT22;6153;51.490;6.586;2022-07-22T16:32:32;24.40;99.90
12180;DHT22;6153;51.490;6.586;2022-07-22T16:35:32;24.40;99.90
12180;DHT22;6153;51.490;6.586;2022-07-22T16:38:33;24.70;99.90
12180;DHT22;6153;51.490;6.586;2022-07-22T16:41:34;24.60;99.90
12180;DHT22;6153;51.490;6.586;2022-07-22T16:44:34;24.60;99.90
12180;DHT22;6153;51.490;6.586;2022-07-22T16:47:35;24.60;99.90
12180;DHT22;6153;51.490;6.586;2022-07-22T16:50:35;24.00;99.90
12180;DHT22;6153;51.490;6.586;2022-07-22T16:53:36;24.00;99.90
12180;DHT22;6153;51.490;6.586;2022-07-22T16:56:37;23.60;99.90
12180;DHT22;6153;51.490;6.586;2022-07-22T16:59:37;23.30;99.90
12180;DHT22;6153;51.490;6.586;2022-07-22T17:02:38;23.30;99.90
12180;DHT22;6153;51.490;6.586;2022-07-22T17:05:38;23.20;99.90
12180;DHT22;6153;51.490;6.586;2022-07-22T17:08:39;23.20;99.90
12180;DHT22;6153;51.490;6.586;2022-07-22T17:11:39;23.20;99.90
12180;DHT22;6153;51.490;6.586;2022-07-22T17:14:40;23.10;99.90
12180;DHT22;6153;51.490;6.586;2022-07-22T17:17:41;22.80;99.90
12180;DHT22;6153;51.490;6.586;2022-07-22T17:20:41;22.90;99.90
12180;DHT22;6153;51.490;6.586;2022-07-22T17:23:42;22.80;99.90
12180;DHT22;6153;51.490;6.586;2022-07-22T17:26:42;22.80;99.90
12180;DHT22;6153;51.490;6.586;2022-07-22T17:29:43;22.70;99.90
12180;DHT22;6153;51.490;6.586;2022-07-22T17:32:44;22.60;99.90
12180;DHT22;6153;51.490;6.586;2022-07-22T17:35:44;22.50;99.90
12180;DHT22;6153;51.490;6.586;2022-07-22T17:38:45;22.50;99.90
12180;DHT22;6153;51.490;6.586;2022-07-22T17:41:46;22.50;99.90
12180;DHT22;6153;51.490;6.586;2022-07-22T17:44:46;22.40;99.90
12180;DHT22;6153;51.490;6.586;2022-07-22T17:47:49;22.20;99.90
12180;DHT22;6153;51.490;6.586;2022-07-22T17:50:49;22.10;99.90
12180;DHT22;6153;51.490;6.586;2022-07-22T17:53:50;22.10;99.90
12180;DHT22;6153;51.490;6.586;2022-07-22T17:56:50;22.10;99.90
12180;DHT22;6153;51.490;6.586;2022-07-22T17:59:51;22.00;99.90
12180;DHT22;6153;51.490;6.586;2022-07-22T18:02:52;22.00;99.90
12180;DHT22;6153;51.490;6.586;2022-07-22T18:05:53;21.90;99.90
12180;DHT22;6153;51.490;6.586;2022-07-22T18:08:55;22.00;99.90
12180;DHT22;6153;51.490;6.586;2022-07-22T18:11:56;21.90;99.90
12180;DHT22;6153;51.490;6.586;2022-07-22T18:14:56;21.70;99.90
12180;DHT22;6153;51.490;6.586;2022-07-22T18:17:57;21.70;99.90
12180;DHT22;6153;51.490;6.586;2022-07-22T18:20:58;21.70;99.90
12180;DHT22;6153;51.490;6.586;2022-07-22T18:23:58;21.60;99.90
12180;DHT22;6153;51.490;6.586;2022-07-22T18:27:00;21.60;99.90
12180;DHT22;6153;51.490;6.586;2022-07-22T18:30:00;21.70;99.90
12180;DHT22;6153;51.490;6.586;2022-07-22T18:33:01;21.90;99.90
12180;DHT22;6153;51.490;6.586;2022-07-22T18:36:04;22.00;99.90
12180;DHT22;6153;51.490;6.586;2022-07-22T18:39:05;22.00;99.90
12180;DHT22;6153;51.490;6.586;2022-07-22T18:42:06;21.80;99.90
12180;DHT22;6153;51.490;6.586;2022-07-22T18:45:07;21.70;99.90
12180;DHT22;6153;51.490;6.586;2022-07-22T18:48:08;21.70;99.90
12180;DHT22;6153;51.490;6.586;2022-07-22T18:51:08;21.60;99.90
12180;DHT22;6153;51.490;6.586;2022-07-22T18:54:09;21.50;99.90
12180;DHT22;6153;51.490;6.586;2022-07-22T18:57:09;21.40;99.90
12180;DHT22;6153;51.490;6.586;2022-07-22T19:00:11;21.30;99.90
12180;DHT22;6153;51.490;6.586;2022-07-22T19:03:11;21.30;99.90
12180;DHT22;6153;51.490;6.586;2022-07-22T19:06:12;21.30;99.90
12180;DHT22;6153;51.490;6.586;2022-07-22T19:09:13;21.20;99.90
12180;DHT22;6153;51.490;6.586;2022-07-22T19:12:13;21.10;99.90
12180;DHT22;6153;51.490;6.586;2022-07-22T19:15:14;21.10;99.90
12180;DHT22;6153;51.490;6.586;2022-07-22T19:18:15;21.00;99.90
12180;DHT22;6153;51.490;6.586;2022-07-22T19:21:19;21.00;99.90
12180;DHT22;6153;51.490;6.586;2022-07-22T19:24:20;20.90;99.90
12180;DHT22;6153;51.490;6.586;2022-07-22T19:27:20;20.90;99.90
12180;DHT22;6153;51.490;6.586;2022-07-22T19:30:21;20.70;99.90